Flight Track Log - Related Links

Times and Time Zones

All times are in EDT time to prevent confusion due to time zone crossing. See the N789EP flight status page for this flight to view local times or setup timezone preferences in your user account.

Time Position Orientation Groundspeed Altitude Reporting Facility
EDT Latitude Longitude Course Direction KTS MPH feet Rate Location/Type
Sat 03:08:44 PM 39.3333 -76.4333 142° Southeast 85 98 900  Level Potomac TRACON
Sat 03:09:45 PM 39.3000 -76.4167 159° South 106 122 1,400 545 Climbing Potomac TRACON
Sat 03:10:45 PM 39.3000 -76.4000 90° East 96 110 2,000 700 Climbing Potomac TRACON
Sat 03:11:45 PM 39.2833 -76.3667 123° Southeast 93 107 2,800 700 Climbing Potomac TRACON
Sat 03:12:45 PM 39.2667 -76.3500 142° Southeast 90 104 3,400 730 Climbing Potomac TRACON
Sat 03:13:40 PM 39.2500 -76.3167 123° Southeast 88 101 4,200 730 Climbing Potomac TRACON
Sat 03:14:00 PM 39.3257 -76.4138 142° Southeast  Level Estimated
Sat 03:14:40 PM 39.2333 -76.3000 142° Southeast 85 98 4,800  Level Potomac TRACON
Sat 03:15:40 PM 39.2167 -76.2833 142° Southeast 106 122 5,100 99 Climbing Potomac TRACON
Sat 03:16:41 PM 39.1833 -76.2667 159° South 126 145 5,000 -50 Descending Potomac TRACON
Sat 03:17:41 PM 39.1500 -76.2333 142° Southeast 122 140 5,000 -50 Level Potomac TRACON
Sat 03:18:41 PM 39.1167 -76.2167 159° South 125 144 4,900  Descending Potomac TRACON
Sat 03:19:42 PM 39.1000 -76.1833 123° Southeast 125 144 5,000  Climbing Potomac TRACON
Sat 03:20:07 PM 39.0850 -76.1772 162° South 125 144 4,900  Descending Washington Center
Sat 03:21:32 PM 39.0475 -76.1394 142° Southeast 122 140 5,000 41 Climbing Washington Center
Sat 03:22:33 PM 39.0186 -76.1181 150° Southeast 123 142 5,000 49 Level Washington Center
Sat 03:23:34 PM 38.9894 -76.1017 156° South 121 139 5,100  Climbing Washington Center
Sat 03:24:34 PM 38.9603 -76.0775 147° Southeast 118 136 5,000 149 Descending Washington Center
Sat 03:25:35 PM 38.9353 -76.0481 138° Southeast 106 122 5,400 397 Climbing Washington Center
Sat 03:26:35 PM 38.9106 -76.0211 140° Southeast 108 124 5,800 446 Climbing Washington Center
Sat 03:27:36 PM 38.8875 -75.9969 141° Southeast 115 132 6,300 425 Climbing Washington Center
Sat 03:28:42 PM 38.8544 -75.9728 150° Southeast 120 138 6,700 378 Climbing Washington Center
Sat 03:29:43 PM 38.8231 -75.9514 152° Southeast 123 142 7,100 148 Climbing Washington Center
Sat 03:30:44 PM 38.7939 -75.9247 145° Southeast 135 155 7,000 -164 Descending Washington Center
Sat 03:31:33 PM 38.7669 -75.9006 145° Southeast 137 158 6,800  Descending Washington Center
Sat 03:32:33 PM 38.7400 -75.8764 145° Southeast 131 151 7,000 43 Climbing Washington Center
Sat 03:33:52 PM 38.7025 -75.8364 140° Southeast 131 151 6,900  Descending Washington Center
Sat 03:34:53 PM 38.6775 -75.8069 137° Southeast 131 151 7,000 49 Climbing Washington Center
Sat 03:35:54 PM 38.6442 -75.7803 148° Southeast 128 147 7,000 -58 Level Washington Center
Sat 03:36:37 PM 38.6214 -75.7617 147° Southeast 131 151 6,900  Descending Washington Center
Sat 03:37:42 PM 38.5881 -75.7325 146° Southeast 128 147 7,000 47 Climbing Washington Center
Sat 03:38:45 PM 38.5631 -75.6978 133° Southeast 132 152 7,000 -49 Level Washington Center
Sat 03:39:45 PM 38.5381 -75.6633 133° Southeast 135 155 6,900 -50 Descending Washington Center
Sat 03:40:46 PM 38.5108 -75.6314 137° Southeast 136 157 6,900  Level Washington Center
Sat 03:41:41 PM 38.4881 -75.5969 130° Southeast 132 152 6,900 -224 Level Washington Center
Sat 03:43:00 PM 38.4547 -75.5544 135° Southeast 132 152 6,400 -777 Descending Washington Center
Sat 03:44:00 PM 38.4275 -75.5175 133° Southeast 147 169 5,100 -1,211 Descending Washington Center
Sat 03:44:54 PM 38.4003 -75.4858 138° Southeast 141 162 4,100 -1,043 Descending Washington Center
Sat 03:45:55 PM 38.3753 -75.4514 133° Southeast 133 153 3,100 -590 Descending Washington Center
Sat 03:46:56 PM 38.3606 -75.4089 114° Southeast 123 142 2,900 -50 Descending Washington Center
Sat 03:47:56 PM 38.3439 -75.3719 120° Southeast 125 144 3,000 50 Climbing Washington Center
Sat 03:48:56 PM 38.3250 -75.3297 120° Southeast 134 154 3,000  Level Washington Center
Sat 03:50:03 PM 38.2917 -75.3114 157° South 124 143 3,000 -47 Level Washington Center
Sat 03:51:04 PM 38.2603 -75.3114 180° South 127 146 2,900 -393 Descending Washington Center
Sat 03:52:05 PM 38.2458 -75.3458 242° Southwest 112 129 2,200 -446 Descending Washington Center
Sat 03:53:05 PM 38.2583 -75.3750 299° West 89 102 2,000 -99 Descending Washington Center
Sat 03:54:06 PM 38.2772 -75.4014 312° West 94 108 2,000 -298 Level Washington Center
Sat 03:55:06 PM 38.2897 -75.4250 304° West 94 108 1,400 -472 Descending Washington Center
Sat 03:56:13 PM 38.3064 -75.4542 306° West 87 100 1,000 -331 Descending Washington Center
Sat 03:57:13 PM 38.3211 -75.4778 308° West 84 97 700 -29 Descending Washington Center
Sat 03:59:38 PM 38.3544 -75.5281 310° West 73 84 900 283 Climbing Washington Center
Sat 04:00:45 PM 38.3650 -75.5467 306° West 61 70 1,700 709 Climbing Washington Center
Sat 04:01:45 PM 38.3775 -75.5653 311° West 69 79 2,400 744 Climbing Washington Center
Sat 04:02:46 PM 38.3942 -75.5864 315° West 85 98 3,200 774 Climbing Washington Center
Sat 04:03:49 PM 38.4067 -75.6022 315° West 67 77 4,000 626 Climbing Washington Center
Sat 04:04:41 PM 38.4233 -75.6183 323° Northwest 87 100 4,400 531 Climbing Washington Center
Sat 04:05:42 PM 38.4442 -75.6289 338° Northwest 77 89 5,000 541 Climbing Washington Center
Sat 04:06:43 PM 38.4631 -75.6419 332° Northwest 76 87 5,500 496 Climbing Washington Center
Sat 04:07:43 PM 38.4817 -75.6553 331° Northwest 75 86 6,000 298 Climbing Washington Center
Sat 04:08:44 PM 38.5025 -75.6739 325° Northwest 97 112 6,100 -49 Climbing Washington Center
Sat 04:09:45 PM 38.5256 -75.6953 324° Northwest 106 122 5,900 -50 Descending Washington Center
Sat 04:10:45 PM 38.5483 -75.7111 331° Northwest 94 108 6,000 34 Climbing Washington Center
Sat 04:12:43 PM 38.5833 -75.7500 319° Northwest 98 113 6,000  Level Potomac TRACON
Sat 04:13:43 PM 38.6167 -75.7667 339° North 94 108 6,000  Level Potomac TRACON
Sat 04:14:43 PM 38.6333 -75.7833 322° Northwest 97 112 6,000  Level Potomac TRACON
Sat 04:15:43 PM 38.6667 -75.8000 339° North 97 112 6,000  Level Potomac TRACON
Sat 04:16:43 PM 38.6833 -75.8167 322° Northwest 94 108 6,000 -50 Level Potomac TRACON
Sat 04:17:44 PM 38.7000 -75.8333 322° Northwest 96 110 5,900 -50 Descending Potomac TRACON
Sat 04:18:44 PM 38.7333 -75.8500 339° North 94 108 5,900  Level Potomac TRACON
Sat 04:19:44 PM 38.7500 -75.8667 322° Northwest 89 102 5,900 -500 Level Potomac TRACON
Sat 04:20:44 PM 38.7667 -75.8833 322° Northwest 107 123 4,900 -1,041 Descending Potomac TRACON
Sat 04:21:45 PM 38.8000 -75.9000 339° North 116 133 3,800 -942 Descending Potomac TRACON
Sat 04:22:45 PM 38.8333 -75.9333 322° Northwest 110 127 3,000 -400 Descending Potomac TRACON
Sat 04:23:45 PM 38.8500 -75.9500 322° Northwest 88 101 3,000 -50 Level Potomac TRACON
Sat 04:24:45 PM 38.8667 -75.9667 322° Northwest 80 92 2,900  Descending Potomac TRACON
Sat 04:25:46 PM 38.8833 -75.9833 322° Northwest 89 102 3,000 50 Climbing Potomac TRACON
Sat 04:26:46 PM 38.9000 -76.0000 322° Northwest 76 87 3,000  Level Potomac TRACON
Sat 04:27:46 PM 38.9167 -76.0167 322° Northwest 86 99 3,000 50 Level Potomac TRACON
Sat 04:28:46 PM 38.9333 -76.0333 322° Northwest 86 99 3,100  Climbing Potomac TRACON
Sat 04:29:41 PM 38.9667 -76.0500 339° North 99 114 3,000 -104 Descending Potomac TRACON
Sat 04:30:41 PM 38.9833 -76.0667 322° Northwest 87 100 2,900 50 Descending Potomac TRACON
Sat 04:31:41 PM 39.0000 -76.0833 322° Northwest 98 113 3,100 50 Climbing Potomac TRACON
Sat 04:32:42 PM 39.0333 -76.1000 339° North 105 121 3,000 -50 Descending Potomac TRACON
Sat 04:33:42 PM 39.0500 -76.1167 322° Northwest 101 116 3,000  Level Potomac TRACON
Sat 04:34:43 PM 39.0833 -76.1333 339° North 99 114 3,000 50 Level Potomac TRACON
Sat 04:35:43 PM 39.1000 -76.1500 322° Northwest 89 102 3,100  Climbing Potomac TRACON
Sat 04:36:44 PM 39.1167 -76.1667 322° Northwest 100 115 3,000 -347 Descending Potomac TRACON
Sat 04:37:44 PM 39.1500 -76.1833 339° North 108 124 2,400 -500 Descending Potomac TRACON
Sat 04:38:44 PM 39.1667 -76.2167 303° West 103 119 2,000 -200 Descending Potomac TRACON
Sat 04:39:44 PM 39.1667 -76.2333 270° West 97 112 2,000  Level Potomac TRACON
Sat 04:40:45 PM 39.1500 -76.2167 142° Southeast 112 129 2,000 50 Level Potomac TRACON
Sat 04:41:45 PM 39.1167 -76.1833 142° Southeast 123 142 2,100 50 Climbing Potomac TRACON
Sat 04:42:45 PM 39.1167 -76.1500 90° East 121 139 2,100 -50 Level Potomac TRACON
Sat 04:43:45 PM 39.1333 -76.1667 322° Northwest 97 112 2,000  Descending Potomac TRACON
Sat 04:44:45 PM 39.1500 -76.2000 303° West 97 112 2,100  Climbing Potomac TRACON
Sat 04:45:46 PM 39.1667 -76.2167 322° Northwest 92 106 2,000 50 Descending Potomac TRACON
Sat 04:46:46 PM 39.2000 -76.2500 322° Northwest 95 109 2,200 100 Climbing Potomac TRACON
Sat 04:47:46 PM 39.2167 -76.2667 322° Northwest 96 110 2,200  Level Potomac TRACON
Sat 04:48:46 PM 39.2333 -76.3000 303° West 99 114 2,200 -150 Level Potomac TRACON
Sat 04:49:46 PM 39.2500 -76.3167 322° Northwest 101 116 1,900 -350 Descending Potomac TRACON
Sat 04:50:46 PM 39.2667 -76.3500 303° West 91 105 1,500 -496 Descending Potomac TRACON
Sat 04:51:47 PM 39.2833 -76.3667 322° Northwest 93 107 900 -496 Descending Potomac TRACON
Sat 04:52:47 PM 39.3000 -76.3833 322° Northwest 93 107 500 -400 Descending Potomac TRACON
Sat 04:54:00 PM 39.3167 -76.4000 322° Northwest  Level FlightAware Approximate
Sat 05:01:00 PM 39.3257 -76.4138 322° Northwest  Level Estimated
Sat 05:02:00 PM 39.3257 -76.4138 322° Northwest  Level Estimated
Sat 05:03:00 PM 39.3257 -76.4138 322° Northwest  Level Estimated
Sat 05:04:00 PM 39.3257 -76.4138 322° Northwest  Level Estimated

Login

Don't have an account? Register now (free) for customized features, flight alerts, and more!